createdAt,value
2022-10-24T00:01:03.030Z,87.20
2022-10-24T00:03:31.137Z,87.00
2022-10-24T00:05:59.199Z,87.20
2022-10-24T00:08:27.274Z,87.10
2022-10-24T00:10:55.524Z,87.10
2022-10-24T00:13:23.570Z,87.10
2022-10-24T00:15:53.596Z,87.20
2022-10-24T00:18:21.660Z,87.20
2022-10-24T00:20:49.732Z,87.10
2022-10-24T00:23:17.859Z,87.20
2022-10-24T00:25:45.941Z,87.10
2022-10-24T00:28:14.072Z,87.00
2022-10-24T00:30:44.954Z,87.00
2022-10-24T00:33:14.377Z,87.10
2022-10-24T00:35:43.212Z,87.10
2022-10-24T00:38:11.277Z,87.00
2022-10-24T00:40:39.316Z,87.00
2022-10-24T00:43:14.067Z,87.00
2022-10-24T00:45:46.492Z,87.00
2022-10-24T00:48:23.369Z,87.00
2022-10-24T00:50:55.996Z,87.00
2022-10-24T00:53:24.097Z,87.10
2022-10-24T00:56:06.779Z,87.10
2022-10-24T00:58:35.321Z,87.10
2022-10-24T01:01:06.231Z,87.20
2022-10-24T01:03:35.816Z,87.20
2022-10-24T01:06:12.281Z,87.10
2022-10-24T01:08:43.509Z,87.10
2022-10-24T01:11:15.452Z,87.10
2022-10-24T01:13:46.771Z,87.00
2022-10-24T01:16:16.318Z,87.10
2022-10-24T01:18:48.376Z,87.20
2022-10-24T01:21:25.043Z,87.30
2022-10-24T01:24:07.576Z,87.10
2022-10-24T01:27:18.551Z,87.00
2022-10-24T01:30:02.950Z,87.00
2022-10-24T01:32:41.373Z,87.00
2022-10-24T01:35:16.481Z,87.00
2022-10-24T01:37:46.425Z,87.00
2022-10-24T01:40:16.785Z,87.00
2022-10-24T01:42:44.900Z,87.00
2022-10-24T01:45:16.149Z,87.00
2022-10-24T01:47:46.440Z,87.10
2022-10-24T01:50:20.954Z,87.30
2022-10-24T01:52:49.033Z,87.10
2022-10-24T01:55:17.136Z,87.10
2022-10-24T01:57:45.179Z,87.10
2022-10-24T02:00:17.415Z,87.20
2022-10-24T02:02:46.901Z,87.20
2022-10-24T02:05:17.184Z,87.40
2022-10-24T02:07:46.535Z,87.10
2022-10-24T02:10:24.806Z,87.00
2022-10-24T02:12:54.382Z,87.00
2022-10-24T02:15:25.798Z,87.10
2022-10-24T02:17:53.943Z,87.20
2022-10-24T02:20:22.700Z,87.10
2022-10-24T02:22:53.048Z,87.10
2022-10-24T02:25:23.422Z,87.00
2022-10-24T02:27:54.115Z,87.00
2022-10-24T02:30:24.240Z,87.00
2022-10-24T02:32:53.781Z,87.10
2022-10-24T02:35:24.015Z,87.20
2022-10-24T02:37:52.943Z,87.20
2022-10-24T02:40:21.717Z,87.10
2022-10-24T02:42:50.795Z,87.20
2022-10-24T02:45:18.946Z,87.10
2022-10-24T02:47:48.404Z,87.20
2022-10-24T02:50:16.563Z,87.20
2022-10-24T02:52:45.086Z,87.10
2022-10-24T02:55:13.487Z,87.00
2022-10-24T02:57:41.604Z,87.00
2022-10-24T03:00:11.114Z,87.20
2022-10-24T03:02:39.175Z,87.10
2022-10-24T03:05:09.991Z,87.00
2022-10-24T03:07:38.078Z,87.10
2022-10-24T03:10:06.765Z,87.00
2022-10-24T03:12:34.833Z,87.00
2022-10-24T03:15:02.896Z,87.00
2022-10-24T03:17:31.035Z,87.00
2022-10-24T03:19:59.107Z,87.10
2022-10-24T03:22:30.717Z,87.00
2022-10-24T03:25:03.755Z,87.00
2022-10-24T03:27:31.812Z,87.10
2022-10-24T03:29:59.881Z,86.90
2022-10-24T03:32:28.084Z,86.90
2022-10-24T03:34:56.180Z,86.90
2022-10-24T03:37:24.245Z,86.90
2022-10-24T03:39:53.678Z,87.10
2022-10-24T03:42:22.241Z,87.00
2022-10-24T03:44:50.299Z,87.00
2022-10-24T03:47:18.377Z,87.10
2022-10-24T03:49:46.531Z,87.10
2022-10-24T03:52:14.609Z,86.90
2022-10-24T03:54:42.677Z,86.90
2022-10-24T03:57:12.190Z,86.90
2022-10-24T03:59:40.353Z,87.00
2022-10-24T04:02:08.429Z,87.00
2022-10-24T04:04:36.613Z,86.90
2022-10-24T04:07:05.848Z,87.00
2022-10-24T04:09:34.059Z,87.00
2022-10-24T04:12:02.108Z,86.90
2022-10-24T04:14:31.539Z,87.00
2022-10-24T04:16:59.651Z,86.90
2022-10-24T04:19:41.569Z,86.90
2022-10-24T04:22:09.693Z,86.80
2022-10-24T04:24:39.429Z,86.80
2022-10-24T04:27:07.558Z,86.80
2022-10-24T04:29:36.974Z,86.80
2022-10-24T04:32:05.232Z,86.80
2022-10-24T04:34:36.996Z,86.70
2022-10-24T04:37:05.182Z,86.80
2022-10-24T04:39:33.204Z,86.90
2022-10-24T04:42:01.294Z,86.90
2022-10-24T04:44:29.393Z,86.80
2022-10-24T04:46:58.821Z,86.80
2022-10-24T04:49:26.917Z,86.80
2022-10-24T04:51:58.060Z,86.90
2022-10-24T04:54:32.022Z,86.80
2022-10-24T04:57:00.082Z,86.80
2022-10-24T04:59:28.136Z,86.70
2022-10-24T05:01:56.325Z,86.70
2022-10-24T05:04:25.827Z,86.80
2022-10-24T05:06:53.913Z,86.70
2022-10-24T05:09:21.976Z,86.70
2022-10-24T05:11:50.045Z,86.70
2022-10-24T05:14:34.477Z,86.80
2022-10-24T05:17:02.555Z,86.70
2022-10-24T05:19:32.087Z,86.60
2022-10-24T05:22:00.163Z,86.70
2022-10-24T05:24:28.214Z,86.70
2022-10-24T05:26:56.264Z,86.60
2022-10-24T05:29:24.328Z,86.60
2022-10-24T05:31:52.434Z,86.60
2022-10-24T05:34:20.533Z,86.70
2022-10-24T05:36:49.973Z,86.70
2022-10-24T05:39:18.040Z,86.50
2022-10-24T05:41:47.362Z,86.60
2022-10-24T05:44:16.308Z,86.60
2022-10-24T05:46:50.455Z,86.60
2022-10-24T05:49:21.858Z,86.50
2022-10-24T05:51:51.279Z,86.60
2022-10-24T05:54:19.386Z,86.50
2022-10-24T05:56:47.457Z,86.50
2022-10-24T05:59:15.705Z,86.50
2022-10-24T06:01:44.038Z,86.60
2022-10-24T06:04:13.815Z,86.50
2022-10-24T06:06:45.578Z,86.60
2022-10-24T06:09:15.006Z,86.50
2022-10-24T06:11:43.606Z,86.50
2022-10-24T06:14:12.741Z,86.40
2022-10-24T06:16:40.868Z,86.40
2022-10-24T06:19:08.896Z,86.40
2022-10-24T06:21:36.957Z,86.40
2022-10-24T06:24:05.481Z,86.40
2022-10-24T06:26:34.956Z,86.50
2022-10-24T06:29:03.070Z,86.30
2022-10-24T06:31:31.224Z,86.20
2022-10-24T06:33:59.389Z,86.30
2022-10-24T06:36:29.435Z,86.20
2022-10-24T06:38:59.665Z,86.20
2022-10-24T06:41:27.732Z,86.20
2022-10-24T06:43:57.597Z,86.40
2022-10-24T06:46:25.659Z,86.40
2022-10-24T06:48:55.002Z,86.30
2022-10-24T06:51:23.134Z,86.20
2022-10-24T06:53:51.252Z,86.10
2022-10-24T06:56:19.371Z,86.20
2022-10-24T06:58:47.447Z,86.20
2022-10-24T07:01:17.848Z,86.20
2022-10-24T07:03:46.030Z,86.20
2022-10-24T07:06:16.784Z,86.20
2022-10-24T07:08:44.948Z,86.20
2022-10-24T07:11:13.053Z,86.10
2022-10-24T07:13:46.940Z,86.20
2022-10-24T07:16:16.340Z,86.20
2022-10-24T07:18:44.531Z,86.10
2022-10-24T07:21:14.224Z,86.10
2022-10-24T07:23:42.304Z,86.10
2022-10-24T07:26:11.313Z,86.10
2022-10-24T07:28:40.053Z,86.10
2022-10-24T07:31:08.507Z,86.10
2022-10-24T07:33:39.429Z,86.10
2022-10-24T07:36:08.341Z,86.00
2022-10-24T07:38:36.410Z,85.90
2022-10-24T07:41:05.228Z,86.00
2022-10-24T07:43:33.316Z,86.10
2022-10-24T07:48:29.338Z,86.10
2022-10-24T07:51:07.853Z,86.20
2022-10-24T07:53:35.984Z,86.10
2022-10-24T07:56:05.654Z,86.10
2022-10-24T07:58:33.735Z,86.00
2022-10-24T08:01:04.675Z,86.10
2022-10-24T08:03:32.893Z,86.00
2022-10-24T08:06:02.445Z,86.10
2022-10-24T08:08:36.964Z,86.10
2022-10-24T08:11:11.433Z,86.00
2022-10-24T08:13:39.604Z,86.10
2022-10-24T08:16:08.325Z,86.20
2022-10-24T08:18:39.519Z,86.10
2022-10-24T08:21:10.286Z,86.00
2022-10-24T08:23:39.278Z,86.00
2022-10-24T08:26:07.709Z,86.20
2022-10-24T08:28:35.890Z,86.00
2022-10-24T08:31:05.206Z,86.10
2022-10-24T08:33:33.288Z,86.10
2022-10-24T08:36:02.087Z,86.10
2022-10-24T08:38:31.609Z,86.00
2022-10-24T08:40:59.843Z,86.00
2022-10-24T08:43:36.557Z,86.00
2022-10-24T08:46:06.959Z,86.00
2022-10-24T08:48:38.183Z,86.00
2022-10-24T08:51:12.299Z,85.90
2022-10-24T08:53:41.742Z,85.80
2022-10-24T08:56:11.293Z,85.80
2022-10-24T08:58:41.974Z,86.00
2022-10-24T09:01:14.322Z,85.90
2022-10-24T09:03:55.497Z,85.90
2022-10-24T09:06:26.260Z,85.90
2022-10-24T09:08:56.150Z,86.00
2022-10-24T09:11:27.601Z,86.10
2022-10-24T09:13:55.804Z,85.90
2022-10-24T09:16:24.412Z,86.20
2022-10-24T09:18:54.195Z,86.00
2022-10-24T09:21:22.321Z,85.90
2022-10-24T09:23:50.392Z,85.80
2022-10-24T09:26:23.801Z,86.10
2022-10-24T09:28:51.915Z,85.90
2022-10-24T09:31:21.421Z,85.80
2022-10-24T09:33:50.496Z,85.90
2022-10-24T09:36:27.140Z,85.90
2022-10-24T09:39:23.204Z,85.80
2022-10-24T09:41:52.636Z,85.80
2022-10-24T09:44:36.201Z,85.80
2022-10-24T09:47:04.729Z,85.70
2022-10-24T09:49:35.727Z,85.80
2022-10-24T09:52:06.733Z,85.80
2022-10-24T09:54:34.944Z,85.80
2022-10-24T09:57:10.499Z,85.90
2022-10-24T09:59:41.549Z,85.80
2022-10-24T10:02:19.543Z,85.90
2022-10-24T10:04:48.331Z,85.80
2022-10-24T10:07:17.984Z,85.80
2022-10-24T10:09:54.086Z,85.80
2022-10-24T10:12:29.937Z,85.80
2022-10-24T10:14:58.084Z,85.80
2022-10-24T10:17:27.545Z,85.70
2022-10-24T10:19:55.983Z,85.70
2022-10-24T10:22:26.882Z,85.70
2022-10-24T10:24:55.132Z,85.80
2022-10-24T10:27:33.292Z,85.70
2022-10-24T10:30:16.764Z,85.70
2022-10-24T10:32:48.916Z,85.60
2022-10-24T10:35:19.695Z,85.70
2022-10-24T10:37:49.160Z,85.60
2022-10-24T10:40:21.179Z,85.80
2022-10-24T10:42:57.735Z,85.70
2022-10-24T10:45:34.397Z,85.60
2022-10-24T10:48:07.216Z,85.60
2022-10-24T10:50:38.456Z,85.50
2022-10-24T10:53:12.745Z,85.70
2022-10-24T10:55:43.616Z,85.60
2022-10-24T10:58:20.842Z,85.60
2022-10-24T11:00:52.071Z,85.70
2022-10-24T11:03:33.499Z,85.70
2022-10-24T11:06:08.566Z,85.50
2022-10-24T11:09:07.256Z,85.60
2022-10-24T11:11:37.281Z,85.70
2022-10-24T11:14:12.719Z,85.50
2022-10-24T11:16:40.839Z,85.50
2022-10-24T11:19:23.095Z,85.70
2022-10-24T11:21:51.171Z,85.70
2022-10-24T11:24:20.238Z,85.60
2022-10-24T11:26:50.071Z,85.50
2022-10-24T11:29:21.713Z,85.50
2022-10-24T11:31:50.467Z,85.40
2022-10-24T11:34:20.543Z,85.50
2022-10-24T11:36:54.826Z,85.50
2022-10-24T11:39:25.307Z,85.80
2022-10-24T11:41:55.090Z,85.70
2022-10-24T11:44:40.274Z,85.60
2022-10-24T11:47:36.721Z,85.50
2022-10-24T11:50:08.091Z,85.40
2022-10-24T11:52:38.695Z,85.50
2022-10-24T11:55:09.218Z,85.40
2022-10-24T11:57:37.311Z,85.40
2022-10-24T12:00:07.853Z,85.40
2022-10-24T12:02:50.248Z,85.50
2022-10-24T12:05:29.858Z,85.60
2022-10-24T12:08:26.532Z,85.70
2022-10-24T12:11:04.162Z,85.70
2022-10-24T12:14:09.666Z,85.60
2022-10-24T12:16:45.850Z,85.60
2022-10-24T12:19:15.241Z,85.50
2022-10-24T12:21:46.247Z,85.50
2022-10-24T12:24:22.103Z,85.60
2022-10-24T12:26:56.042Z,85.50
2022-10-24T12:29:25.889Z,85.50
2022-10-24T12:31:55.398Z,85.40
2022-10-24T12:34:48.899Z,85.30
2022-10-24T12:37:37.334Z,85.40
2022-10-24T12:40:42.249Z,85.50
2022-10-24T12:43:16.365Z,85.40
2022-10-24T12:45:44.420Z,85.50
2022-10-24T12:48:31.933Z,85.50
2022-10-24T12:51:02.409Z,85.50
2022-10-24T12:53:38.232Z,85.50
2022-10-24T12:59:10.986Z,85.60
2022-10-24T13:01:39.176Z,85.60
2022-10-24T13:04:30.378Z,85.40
2022-10-24T13:07:18.099Z,85.50
2022-10-24T13:09:50.552Z,85.40
2022-10-24T13:12:31.960Z,85.30
2022-10-24T13:15:18.780Z,85.50
2022-10-24T13:17:48.741Z,85.40
2022-10-24T13:20:19.233Z,85.30
2022-10-24T13:22:47.541Z,85.40
2022-10-24T13:25:23.019Z,85.30
2022-10-24T13:28:34.457Z,85.30
2022-10-24T13:31:39.899Z,85.30
2022-10-24T13:34:26.735Z,85.30
2022-10-24T13:37:00.755Z,85.30
2022-10-24T13:39:33.064Z,85.30
2022-10-24T13:42:05.396Z,85.20
2022-10-24T13:44:38.398Z,85.40
2022-10-24T13:47:13.874Z,85.50
2022-10-24T13:49:45.880Z,85.40
2022-10-24T13:52:19.284Z,85.30
2022-10-24T13:55:01.899Z,85.30
2022-10-24T13:57:33.780Z,85.30
2022-10-24T14:00:02.652Z,85.30
2022-10-24T14:02:33.044Z,85.30
2022-10-24T14:05:01.712Z,85.30
2022-10-24T14:07:33.690Z,85.20
2022-10-24T14:10:03.682Z,85.20
2022-10-24T14:12:32.823Z,85.20
2022-10-24T14:15:02.711Z,85.20
2022-10-24T14:17:31.364Z,85.30
2022-10-24T14:20:00.486Z,85.30
2022-10-24T14:22:31.448Z,85.40
2022-10-24T14:24:59.500Z,85.30
2022-10-24T14:27:27.594Z,85.30
2022-10-24T14:30:06.870Z,85.20
2022-10-24T14:32:34.938Z,85.40
2022-10-24T14:35:03.333Z,85.40
2022-10-24T14:37:36.849Z,85.30
2022-10-24T14:40:05.317Z,85.30
2022-10-24T14:42:33.400Z,85.30
2022-10-24T14:45:01.505Z,85.20
2022-10-24T14:47:30.932Z,85.20
2022-10-24T14:49:59.046Z,85.20
2022-10-24T14:52:28.860Z,85.20
2022-10-24T14:55:02.568Z,85.20
2022-10-24T14:57:31.108Z,85.20
2022-10-24T15:00:00.256Z,85.30
2022-10-24T15:02:29.544Z,85.30
2022-10-24T15:05:16.428Z,85.20
2022-10-24T15:07:57.287Z,85.20
2022-10-24T15:10:39.633Z,85.20
2022-10-24T15:13:12.724Z,85.20
2022-10-24T15:15:49.422Z,85.20
2022-10-24T15:18:19.827Z,85.20
2022-10-24T15:20:48.474Z,85.20
2022-10-24T15:23:21.204Z,85.20
2022-10-24T15:26:02.051Z,85.20
2022-10-24T15:28:47.040Z,85.20
2022-10-24T15:31:15.701Z,85.30
2022-10-24T15:33:43.843Z,85.50
2022-10-24T15:36:20.740Z,85.30
2022-10-24T15:38:49.607Z,85.30
2022-10-24T15:41:19.300Z,85.20
2022-10-24T15:43:47.344Z,85.20
2022-10-24T15:46:15.391Z,85.20
2022-10-24T15:48:43.505Z,85.20
2022-10-24T15:51:14.695Z,85.30
2022-10-24T15:53:45.815Z,85.40
2022-10-24T15:56:13.886Z,85.40
2022-10-24T15:58:43.389Z,85.40
2022-10-24T16:01:21.164Z,85.30
2022-10-24T16:03:49.317Z,85.40
2022-10-24T16:06:17.413Z,85.30
2022-10-24T16:08:45.457Z,85.40
2022-10-24T16:11:19.472Z,85.30
2022-10-24T16:13:49.319Z,85.20
2022-10-24T16:16:17.438Z,85.30
2022-10-24T16:18:45.484Z,85.30
2022-10-24T16:21:14.616Z,85.30
2022-10-24T16:23:42.719Z,85.30
2022-10-24T16:26:10.831Z,85.30
2022-10-24T16:28:38.844Z,85.40
2022-10-24T16:31:12.327Z,85.30
2022-10-24T16:33:40.414Z,85.40
2022-10-24T16:36:08.920Z,85.40
2022-10-24T16:38:37.013Z,85.50
2022-10-24T16:41:05.128Z,85.40
2022-10-24T16:43:39.059Z,85.40
2022-10-24T16:46:14.455Z,85.40
2022-10-24T16:48:42.500Z,85.50
2022-10-24T16:51:11.556Z,85.50
2022-10-24T16:53:39.638Z,85.50
2022-10-24T16:56:09.210Z,85.60
2022-10-24T16:58:37.326Z,85.50
2022-10-24T17:01:08.800Z,85.50
2022-10-24T17:03:38.357Z,85.60
2022-10-24T17:06:06.754Z,85.70
2022-10-24T17:08:34.871Z,85.50
2022-10-24T17:11:02.921Z,85.50
2022-10-24T17:13:31.058Z,85.50
2022-10-24T17:15:59.154Z,85.50
2022-10-24T17:18:27.284Z,85.70
2022-10-24T17:21:00.264Z,85.60
2022-10-24T17:23:28.854Z,85.70
2022-10-24T17:25:59.175Z,85.60
2022-10-24T17:28:32.317Z,85.60
2022-10-24T17:31:01.579Z,85.70
2022-10-24T17:33:30.017Z,85.60
2022-10-24T17:35:59.616Z,85.70
2022-10-24T17:38:35.749Z,85.50
2022-10-24T17:41:07.039Z,85.50
2022-10-24T17:43:35.311Z,85.60
2022-10-24T17:46:03.745Z,85.60
2022-10-24T17:48:32.052Z,85.50
2022-10-24T17:51:04.436Z,85.70
2022-10-24T17:53:32.504Z,85.60
2022-10-24T17:56:00.723Z,85.60
2022-10-24T17:58:28.833Z,85.60
2022-10-24T18:00:56.971Z,85.70
2022-10-24T18:03:25.489Z,85.60
2022-10-24T18:05:53.605Z,85.50
2022-10-24T18:08:23.084Z,85.50
2022-10-24T18:10:51.277Z,85.70
2022-10-24T18:13:19.508Z,85.60
2022-10-24T18:15:47.564Z,85.60
2022-10-24T18:18:15.656Z,85.60
2022-10-24T18:20:43.755Z,85.60
2022-10-24T18:23:11.833Z,85.60
2022-10-24T18:25:41.352Z,85.60
2022-10-24T18:28:09.681Z,85.60
2022-10-24T18:30:43.755Z,85.60
2022-10-24T18:33:11.890Z,85.50
2022-10-24T18:35:40.022Z,85.60
2022-10-24T18:38:08.132Z,85.60
2022-10-24T18:40:37.988Z,85.70
2022-10-24T18:43:07.615Z,85.60
2022-10-24T18:45:36.785Z,85.70
2022-10-24T18:48:05.686Z,85.60
2022-10-24T18:50:34.033Z,85.60
2022-10-24T18:53:04.596Z,85.60
2022-10-24T18:55:33.479Z,85.60
2022-10-24T18:58:01.720Z,85.60
2022-10-24T19:00:32.333Z,85.60
2022-10-24T19:03:11.910Z,85.60
2022-10-24T19:05:44.046Z,85.60
2022-10-24T19:08:14.507Z,85.50
2022-10-24T19:10:42.749Z,85.50
2022-10-24T19:13:10.989Z,85.60
2022-10-24T19:15:42.784Z,85.50
2022-10-24T19:18:11.650Z,85.50
2022-10-24T19:20:43.029Z,85.50
2022-10-24T19:23:12.245Z,85.50
2022-10-24T19:25:40.843Z,85.50
2022-10-24T19:28:09.070Z,85.60
2022-10-24T19:30:38.044Z,85.60
2022-10-24T19:33:07.568Z,85.60
2022-10-24T19:35:36.805Z,85.60
2022-10-24T19:38:04.867Z,85.50
2022-10-24T19:40:32.944Z,85.60
2022-10-24T19:43:07.232Z,85.50
2022-10-24T19:45:39.557Z,85.50
2022-10-24T19:48:12.754Z,85.60
2022-10-24T19:50:40.792Z,85.60
2022-10-24T19:53:08.892Z,85.60
2022-10-24T19:55:37.265Z,85.60
2022-10-24T19:58:09.230Z,85.60
2022-10-24T20:00:37.304Z,85.60
2022-10-24T20:03:05.733Z,85.60
2022-10-24T20:05:36.258Z,85.60
2022-10-24T20:08:04.418Z,85.60
2022-10-24T20:10:32.467Z,85.60
2022-10-24T20:13:00.522Z,85.60
2022-10-24T20:15:28.771Z,85.70
2022-10-24T20:17:59.066Z,85.60
2022-10-24T20:20:27.087Z,85.60
2022-10-24T20:22:56.520Z,85.60
2022-10-24T20:25:24.662Z,85.60
2022-10-24T20:27:52.754Z,85.60
2022-10-24T20:30:20.841Z,85.70
2022-10-24T20:32:48.852Z,85.60
2022-10-24T20:38:00.369Z,85.70
2022-10-24T20:40:28.619Z,85.70
2022-10-24T20:42:56.675Z,85.70
2022-10-24T20:45:24.863Z,85.60
2022-10-24T20:47:53.861Z,85.70
2022-10-24T20:50:21.951Z,85.70
2022-10-24T20:52:50.060Z,85.60
2022-10-24T20:55:31.836Z,85.60
2022-10-24T20:58:07.711Z,85.60
2022-10-24T21:00:35.840Z,85.60
2022-10-24T21:03:03.919Z,85.60
2022-10-24T21:05:32.164Z,85.60
2022-10-24T21:08:00.233Z,85.60
2022-10-24T21:10:29.708Z,85.60
2022-10-24T21:12:57.909Z,85.60
2022-10-24T21:15:26.411Z,85.70
2022-10-24T21:17:54.454Z,85.70
2022-10-24T21:20:22.564Z,85.60
2022-10-24T21:22:50.617Z,85.60
2022-10-24T21:25:24.637Z,85.60
2022-10-24T21:27:54.518Z,85.60
2022-10-24T21:30:22.638Z,85.70
2022-10-24T21:32:50.725Z,85.70
2022-10-24T21:35:18.785Z,85.70
2022-10-24T21:37:47.069Z,85.70
2022-10-24T21:40:18.209Z,85.60
2022-10-24T21:42:46.642Z,85.70
2022-10-24T21:45:16.325Z,85.60
2022-10-24T21:47:44.410Z,85.70
2022-10-24T21:50:12.468Z,85.60
2022-10-24T21:52:40.491Z,85.60
2022-10-24T21:55:09.242Z,85.60
2022-10-24T22:00:31.033Z,85.60
2022-10-24T22:02:59.153Z,85.60
2022-10-24T22:05:27.302Z,85.70
2022-10-24T22:07:55.811Z,85.60
2022-10-24T22:10:24.073Z,85.70
2022-10-24T22:12:52.168Z,85.70
2022-10-24T22:15:20.293Z,85.70
2022-10-24T22:17:59.989Z,85.70
2022-10-24T22:20:28.109Z,85.60
2022-10-24T22:22:56.218Z,85.60
2022-10-24T22:25:24.302Z,85.60
2022-10-24T22:27:52.461Z,85.60
2022-10-24T22:30:20.617Z,85.60
2022-10-24T22:32:49.167Z,85.60
2022-10-24T22:35:32.622Z,85.60
2022-10-24T22:38:01.485Z,85.60
2022-10-24T22:40:30.488Z,85.60
2022-10-24T22:42:58.925Z,85.90
2022-10-24T22:45:27.728Z,85.70
2022-10-24T22:48:09.917Z,85.60
2022-10-24T22:50:51.061Z,85.60
2022-10-24T22:53:20.564Z,85.60
2022-10-24T22:56:07.081Z,85.50
2022-10-24T22:58:35.702Z,85.80
2022-10-24T23:01:05.681Z,85.60
2022-10-24T23:03:38.654Z,85.70
2022-10-24T23:06:10.996Z,85.70
2022-10-24T23:08:40.509Z,85.60
2022-10-24T23:11:15.182Z,85.50
2022-10-24T23:13:54.632Z,85.70
2022-10-24T23:16:25.972Z,85.60
2022-10-24T23:18:54.797Z,85.50
2022-10-24T23:21:28.178Z,85.50
2022-10-24T23:23:56.708Z,86.00
2022-10-24T23:26:28.648Z,85.60
2022-10-24T23:29:00.293Z,85.60
2022-10-24T23:31:29.614Z,85.50
2022-10-24T23:34:07.748Z,85.50
2022-10-24T23:36:37.885Z,85.60
2022-10-24T23:39:06.625Z,85.80
2022-10-24T23:41:35.404Z,85.70
2022-10-24T23:44:03.960Z,85.50
2022-10-24T23:46:34.956Z,85.50
2022-10-24T23:49:10.889Z,85.70
2022-10-24T23:51:42.956Z,86.10
2022-10-24T23:54:12.215Z,85.70
2022-10-24T23:56:40.833Z,85.70
2022-10-24T23:59:08.887Z,85.90
